createdAt,value
2022-11-15T00:00:13.296Z,52.95
2022-11-15T00:05:14.920Z,65.40
2022-11-15T00:10:16.857Z,50.85
2022-11-15T00:15:18.379Z,64.55
2022-11-15T00:20:19.771Z,64.57
2022-11-15T00:25:22.235Z,58.97
2022-11-15T00:30:25.601Z,58.72
2022-11-15T00:35:28.244Z,58.55
2022-11-15T00:40:33.032Z,60.72
2022-11-15T00:45:34.557Z,54.90
2022-11-15T00:50:37.168Z,58.67
2022-11-15T00:55:38.615Z,57.88
2022-11-15T01:00:40.160Z,59.15
2022-11-15T01:05:41.644Z,70.05
2022-11-15T01:10:43.075Z,64.97
2022-11-15T01:15:44.561Z,66.97
2022-11-15T01:20:45.989Z,63.28
2022-11-15T01:25:47.411Z,64.82
2022-11-15T01:30:48.989Z,54.85
2022-11-15T01:35:50.358Z,58.58
2022-11-15T01:40:51.790Z,54.47
2022-11-15T01:46:17.224Z,58.08
2022-11-15T01:51:21.309Z,59.50
2022-11-15T01:56:26.351Z,58.17
2022-11-15T02:01:29.467Z,61.10
2022-11-15T02:06:31.432Z,52.50
2022-11-15T02:11:33.312Z,51.58
2022-11-15T02:16:51.650Z,58.53
2022-11-15T02:22:22.658Z,58.08
2022-11-15T02:27:51.721Z,51.90
2022-11-15T02:32:55.587Z,62.35
2022-11-15T02:38:00.382Z,56.85
2022-11-15T02:43:28.362Z,63.38
2022-11-15T02:48:32.641Z,60.25
2022-11-15T02:53:34.382Z,62.22
2022-11-15T02:59:02.889Z,60.75
2022-11-15T03:04:22.460Z,65.22
2022-11-15T03:09:36.880Z,72.07
2022-11-15T03:15:01.375Z,73.70
2022-11-15T03:20:06.956Z,71.70
2022-11-15T03:25:12.136Z,76.40
2022-11-15T03:30:14.697Z,79.28
2022-11-15T03:35:21.470Z,70.72
2022-11-15T03:45:40.620Z,73.72
2022-11-15T03:50:44.378Z,82.07
2022-11-15T03:55:45.941Z,74.80
2022-11-15T04:00:47.385Z,76.60
2022-11-15T04:05:48.928Z,84.55
2022-11-15T04:10:51.091Z,83.63
2022-11-15T04:15:52.750Z,83.10
2022-11-15T04:21:12.784Z,92.65
2022-11-15T04:26:19.220Z,78.57
2022-11-15T04:31:20.582Z,88.95
2022-11-15T04:36:41.298Z,85.28
2022-11-15T04:41:42.732Z,81.85
2022-11-15T04:46:44.134Z,91.72
2022-11-15T04:51:46.069Z,93.20
2022-11-15T04:56:47.500Z,88.65
2022-11-15T05:01:48.903Z,87.78
2022-11-15T05:06:52.480Z,93.10
2022-11-15T05:11:53.919Z,87.90
2022-11-15T05:16:55.283Z,87.28
2022-11-15T05:21:56.839Z,92.05
2022-11-15T05:26:58.429Z,85.70
2022-11-15T05:32:00.428Z,97.15
2022-11-15T05:37:01.877Z,89.20
2022-11-15T05:42:09.520Z,93.05
2022-11-15T05:47:15.273Z,98.78
2022-11-15T05:52:21.272Z,105.78
2022-11-15T05:57:22.875Z,107.27
2022-11-15T06:02:24.378Z,106.30
2022-11-15T06:07:25.886Z,102.82
2022-11-15T06:12:27.411Z,97.50
2022-11-15T06:17:29.952Z,103.18
2022-11-15T06:22:31.336Z,97.38
2022-11-15T06:27:32.743Z,95.93
2022-11-15T06:32:34.160Z,95.05
2022-11-15T06:37:35.552Z,108.03
2022-11-15T06:42:37.026Z,93.70
2022-11-15T06:47:47.293Z,97.82
2022-11-15T06:52:49.241Z,101.57
2022-11-15T06:57:52.527Z,99.88
2022-11-15T07:02:54.136Z,95.28
2022-11-15T07:07:56.728Z,93.70
2022-11-15T07:12:58.130Z,88.65
2022-11-15T07:18:02.132Z,95.78
2022-11-15T07:23:06.565Z,86.40
2022-11-15T07:28:08.221Z,77.82
2022-11-15T07:33:10.061Z,83.65
2022-11-15T07:38:11.452Z,78.93
2022-11-15T07:43:12.968Z,77.05
2022-11-15T07:48:14.393Z,80.53
2022-11-15T07:53:15.893Z,88.10
2022-11-15T07:58:17.272Z,87.82
2022-11-15T08:03:18.725Z,78.63
2022-11-15T08:08:20.434Z,77.13
2022-11-15T08:13:22.274Z,80.25
2022-11-15T08:18:23.950Z,76.13
2022-11-15T08:23:25.544Z,68.45
2022-11-15T08:28:26.912Z,69.80
2022-11-15T08:33:29.161Z,66.40
2022-11-15T08:38:31.748Z,77.38
2022-11-15T08:43:34.354Z,70.45
2022-11-15T08:48:36.150Z,65.20
2022-11-15T08:53:37.723Z,69.35
2022-11-15T08:58:39.635Z,58.88
2022-11-15T09:03:41.623Z,61.72
2022-11-15T09:08:47.816Z,55.63
2022-11-15T09:13:50.042Z,63.05
2022-11-15T09:18:51.397Z,45.90
2022-11-15T09:23:53.351Z,46.38
2022-11-15T09:28:54.791Z,39.33
2022-11-15T09:33:56.781Z,47.58
2022-11-15T09:39:01.126Z,34.28
2022-11-15T09:44:08.170Z,37.67
2022-11-15T09:49:12.716Z,33.47
2022-11-15T10:05:43.146Z,22.35
2022-11-15T10:10:47.894Z,19.83
2022-11-15T10:15:51.486Z,14.82
2022-11-15T10:21:21.027Z,16.27
2022-11-15T10:26:24.547Z,12.38
2022-11-15T10:31:29.610Z,13.48
2022-11-15T10:36:31.170Z,9.10
2022-11-15T10:41:37.223Z,7.03
2022-11-15T10:46:48.876Z,8.45
2022-11-15T10:52:05.254Z,5.93
2022-11-15T10:57:19.464Z,6.70
2022-11-15T11:02:43.184Z,6.22
2022-11-15T11:07:57.459Z,9.50
2022-11-15T11:13:15.257Z,3.53
2022-11-15T11:18:29.467Z,5.75
2022-11-15T11:23:48.641Z,9.02
2022-11-15T11:29:01.851Z,6.22
2022-11-15T11:34:25.244Z,2.65
2022-11-15T11:39:46.060Z,2.53
2022-11-15T11:45:06.383Z,4.88
2022-11-15T11:50:21.412Z,4.78
2022-11-15T11:55:44.017Z,6.18
2022-11-15T12:00:55.520Z,2.40
2022-11-15T12:06:03.396Z,2.97
2022-11-15T12:11:14.352Z,8.40
2022-11-15T12:16:22.882Z,2.13
2022-11-15T12:21:43.224Z,4.25
2022-11-15T12:26:53.729Z,4.68
2022-11-15T12:31:59.144Z,11.95
2022-11-15T12:37:00.638Z,7.47
2022-11-15T12:42:05.114Z,2.75
2022-11-15T12:47:09.466Z,3.45
2022-11-15T12:52:11.130Z,3.97
2022-11-15T12:57:15.229Z,2.58
2022-11-15T13:02:22.696Z,2.72
2022-11-15T13:07:36.399Z,5.07
2022-11-15T13:12:43.478Z,3.58
2022-11-15T13:17:48.807Z,4.80
2022-11-15T13:23:15.721Z,2.97
2022-11-15T13:28:17.032Z,7.20
2022-11-15T13:33:23.091Z,3.95
2022-11-15T13:38:34.937Z,1.38
2022-11-15T13:43:37.142Z,3.97
2022-11-15T13:48:39.361Z,3.28
2022-11-15T13:53:47.453Z,5.55
2022-11-15T13:58:49.168Z,3.38
2022-11-15T14:04:01.632Z,1.60
2022-11-15T14:09:11.926Z,5.90
2022-11-15T14:14:16.408Z,2.58
2022-11-15T14:19:20.740Z,3.65
2022-11-15T14:24:22.501Z,14.82
2022-11-15T14:29:29.580Z,8.60
2022-11-15T14:34:33.265Z,4.97
2022-11-15T14:39:34.606Z,10.93
2022-11-15T14:44:36.092Z,6.10
2022-11-15T14:49:37.584Z,10.45
2022-11-15T14:54:39.339Z,2.85
2022-11-15T14:59:40.794Z,8.13
2022-11-15T15:04:42.186Z,8.70
2022-11-15T15:09:44.185Z,3.40
2022-11-15T15:14:47.530Z,2.92
2022-11-15T15:19:48.943Z,7.72
2022-11-15T15:24:50.313Z,6.18
2022-11-15T15:29:51.886Z,2.33
2022-11-15T15:34:53.455Z,7.65
2022-11-15T15:39:57.513Z,3.60
2022-11-15T15:44:58.921Z,5.72
2022-11-15T15:50:00.424Z,3.05
2022-11-15T15:55:01.786Z,2.45
2022-11-15T16:00:05.253Z,4.18
2022-11-15T16:05:07.320Z,5.18
2022-11-15T16:10:30.568Z,4.38
2022-11-15T16:15:33.115Z,4.20
2022-11-15T16:20:46.334Z,7.95
2022-11-15T16:25:53.870Z,7.15
2022-11-15T16:31:01.407Z,4.22
2022-11-15T16:36:04.192Z,11.15
2022-11-15T16:41:05.695Z,19.83
2022-11-15T16:46:16.462Z,11.25
2022-11-15T16:51:18.062Z,4.07
2022-11-15T16:56:24.577Z,6.57
2022-11-15T17:01:28.973Z,5.68
2022-11-15T17:06:30.507Z,5.22
2022-11-15T17:11:32.081Z,4.97
2022-11-15T17:16:34.243Z,3.35
2022-11-15T17:21:35.690Z,8.07
2022-11-15T17:26:40.766Z,4.10
2022-11-15T17:31:42.512Z,6.50
2022-11-15T17:36:44.024Z,7.40
2022-11-15T17:41:45.412Z,3.78
2022-11-15T17:46:46.787Z,6.03
2022-11-15T17:51:50.137Z,6.45
2022-11-15T17:56:51.800Z,7.55
2022-11-15T18:01:54.040Z,5.38
2022-11-15T18:06:56.407Z,7.10
2022-11-15T18:11:58.623Z,5.22
2022-11-15T18:17:00.009Z,7.38
2022-11-15T18:22:01.852Z,6.93
2022-11-15T18:27:06.851Z,6.45
2022-11-15T18:32:12.527Z,6.95
2022-11-15T18:37:14.028Z,8.00
2022-11-15T18:42:15.390Z,7.57
2022-11-15T18:47:16.924Z,6.53
2022-11-15T18:52:18.381Z,8.77
2022-11-15T18:57:19.778Z,7.28
2022-11-15T19:02:21.270Z,9.43
2022-11-15T19:07:22.736Z,8.70
2022-11-15T19:12:24.350Z,43.00
2022-11-15T19:17:28.053Z,10.57
2022-11-15T19:22:29.900Z,7.72
2022-11-15T19:27:36.872Z,8.07
2022-11-15T19:32:39.928Z,8.48
2022-11-15T19:37:41.373Z,10.85
2022-11-15T19:42:43.364Z,7.65
2022-11-15T19:47:45.387Z,9.57
2022-11-15T19:52:49.984Z,9.30
2022-11-15T19:57:51.624Z,8.85
2022-11-15T20:02:55.744Z,8.18
2022-11-15T20:08:00.156Z,10.23
2022-11-15T20:13:04.127Z,8.02
2022-11-15T20:18:07.978Z,14.52
2022-11-15T20:23:09.658Z,9.20
2022-11-15T20:28:16.561Z,16.70
2022-11-15T20:33:18.284Z,10.90
2022-11-15T20:38:21.738Z,9.15
2022-11-15T20:43:23.468Z,10.38
2022-11-15T20:48:25.005Z,13.38
2022-11-15T20:53:30.544Z,10.43
2022-11-15T20:58:34.020Z,9.02
2022-11-15T21:03:36.150Z,15.90
2022-11-15T21:08:56.537Z,13.90
2022-11-15T21:14:02.062Z,12.15
2022-11-15T21:19:09.030Z,11.60
2022-11-15T21:24:10.564Z,42.00
2022-11-15T21:29:16.979Z,12.70
2022-11-15T21:34:19.234Z,15.85
2022-11-15T21:39:20.614Z,13.38
2022-11-15T21:44:24.986Z,15.43
2022-11-15T21:49:27.406Z,14.40
2022-11-15T21:54:29.825Z,14.43
2022-11-15T21:59:32.276Z,12.82
2022-11-15T22:04:33.827Z,16.85
2022-11-15T22:09:37.135Z,15.23
2022-11-15T22:14:38.598Z,15.05
2022-11-15T22:19:52.254Z,15.75
2022-11-15T22:24:55.148Z,15.20
2022-11-15T22:29:56.816Z,15.07
2022-11-15T22:34:58.810Z,17.88
2022-11-15T22:40:00.390Z,13.98
2022-11-15T22:45:01.856Z,18.60
2022-11-15T22:50:06.429Z,14.98
2022-11-15T22:55:08.276Z,14.05
2022-11-15T23:00:15.669Z,14.88
2022-11-15T23:05:17.147Z,16.13
2022-11-15T23:10:37.138Z,17.02
2022-11-15T23:15:56.897Z,16.95
2022-11-15T23:20:58.297Z,22.23
2022-11-15T23:26:01.128Z,17.75
2022-11-15T23:31:23.362Z,18.58
2022-11-15T23:36:26.751Z,20.95
2022-11-15T23:41:28.153Z,19.23
2022-11-15T23:46:29.761Z,19.17
2022-11-15T23:51:31.324Z,24.58
2022-11-15T23:56:32.963Z,20.80
